sensor_id;sensor_type;location;lat;lon;timestamp;pressure;altitude;pressure_sealevel;temperature;humidity
63194;BME280;49289;51.670;5.624;2023-09-07T00:01:29;102045.22;;;27.14;55.29
63194;BME280;49289;51.670;5.624;2023-09-07T00:03:18;102040.98;;;27.08;55.23
63194;BME280;49289;51.670;5.624;2023-09-07T00:05:05;102063.55;;;27.18;55.22
63194;BME280;49289;51.670;5.624;2023-09-07T00:06:52;102044.02;;;27.07;55.34
63194;BME280;49289;51.670;5.624;2023-09-07T00:08:39;102065.95;;;27.13;55.36
63194;BME280;49289;51.670;5.624;2023-09-07T00:10:28;102063.35;;;27.12;55.61
63194;BME280;49289;51.670;5.624;2023-09-07T00:12:17;102064.30;;;27.09;55.59
63194;BME280;49289;51.670;5.624;2023-09-07T00:14:05;102043.54;;;27.00;55.68
63194;BME280;49289;51.670;5.624;2023-09-07T00:15:53;102064.59;;;27.15;55.66
63194;BME280;49289;51.670;5.624;2023-09-07T00:17:40;102063.02;;;27.12;55.57
63194;BME280;49289;51.670;5.624;2023-09-07T00:19:27;102036.61;;;27.02;55.42
63194;BME280;49289;51.670;5.624;2023-09-07T00:21:14;102060.72;;;27.14;55.66
63194;BME280;49289;51.670;5.624;2023-09-07T00:23:01;102037.14;;;27.00;55.88
63194;BME280;49289;51.670;5.624;2023-09-07T00:24:49;102056.81;;;27.08;55.83
63194;BME280;49289;51.670;5.624;2023-09-07T00:26:38;102060.75;;;27.11;55.82
63194;BME280;49289;51.670;5.624;2023-09-07T00:28:26;102043.52;;;27.06;55.96
63194;BME280;49289;51.670;5.624;2023-09-07T00:30:15;102055.62;;;27.10;55.94
63194;BME280;49289;51.670;5.624;2023-09-07T00:32:02;102032.23;;;26.98;55.93
63194;BME280;49289;51.670;5.624;2023-09-07T00:33:51;102045.62;;;27.03;56.17
63194;BME280;49289;51.670;5.624;2023-09-07T00:35:38;102022.47;;;26.89;56.37
63194;BME280;49289;51.670;5.624;2023-09-07T00:37:25;102046.13;;;27.02;56.49
63194;BME280;49289;51.670;5.624;2023-09-07T00:39:13;102042.59;;;27.16;56.15
63194;BME280;49289;51.670;5.624;2023-09-07T00:41:01;102040.37;;;27.09;56.26
63194;BME280;49289;51.670;5.624;2023-09-07T00:42:50;102038.64;;;27.15;56.24
63194;BME280;49289;51.670;5.624;2023-09-07T00:44:38;102015.72;;;27.05;56.06
63194;BME280;49289;51.670;5.624;2023-09-07T00:46:26;102016.98;;;27.05;56.09
63194;BME280;49289;51.670;5.624;2023-09-07T00:48:14;102029.27;;;27.16;55.91
63194;BME280;49289;51.670;5.624;2023-09-07T00:50:01;102012.52;;;27.02;56.03
63194;BME280;49289;51.670;5.624;2023-09-07T00:51:48;102013.19;;;27.03;55.91
63194;BME280;49289;51.670;5.624;2023-09-07T00:53:36;102032.56;;;27.16;56.19
63194;BME280;49289;51.670;5.624;2023-09-07T00:55:24;102023.09;;;27.09;56.16
63194;BME280;49289;51.670;5.624;2023-09-07T00:57:12;102034.39;;;27.19;56.01
63194;BME280;49289;51.670;5.624;2023-09-07T00:59:00;102038.59;;;27.20;55.99
63194;BME280;49289;51.670;5.624;2023-09-07T01:00:48;102018.58;;;27.06;55.64
63194;BME280;49289;51.670;5.624;2023-09-07T01:02:35;102015.30;;;27.05;55.78
63194;BME280;49289;51.670;5.624;2023-09-07T01:04:22;102037.75;;;27.19;55.72
63194;BME280;49289;51.670;5.624;2023-09-07T01:06:12;102019.94;;;27.05;55.63
63194;BME280;49289;51.670;5.624;2023-09-07T01:07:58;102016.39;;;27.05;55.42
63194;BME280;49289;51.670;5.624;2023-09-07T01:09:44;102036.28;;;27.15;55.64
63194;BME280;49289;51.670;5.624;2023-09-07T01:11:35;102035.83;;;27.17;55.50
63194;BME280;49289;51.670;5.624;2023-09-07T01:13:18;102032.33;;;27.13;55.37
63194;BME280;49289;51.670;5.624;2023-09-07T01:15:05;102011.84;;;27.03;55.45
63194;BME280;49289;51.670;5.624;2023-09-07T01:16:52;102036.22;;;27.11;55.44
63194;BME280;49289;51.670;5.624;2023-09-07T01:18:41;102030.94;;;27.08;55.35
63194;BME280;49289;51.670;5.624;2023-09-07T01:20:29;102031.58;;;27.04;55.41
63194;BME280;49289;51.670;5.624;2023-09-07T01:22:17;102015.67;;;26.84;55.75
63194;BME280;49289;51.670;5.624;2023-09-07T01:24:04;102016.28;;;26.79;55.85
63194;BME280;49289;51.670;5.624;2023-09-07T01:25:51;102010.75;;;26.76;55.82
63194;BME280;49289;51.670;5.624;2023-09-07T01:27:40;102034.67;;;26.89;55.93
63194;BME280;49289;51.670;5.624;2023-09-07T01:29:28;102026.80;;;26.84;56.03
63194;BME280;49289;51.670;5.624;2023-09-07T01:31:16;102033.59;;;26.87;55.99
63194;BME280;49289;51.670;5.624;2023-09-07T01:33:04;102032.02;;;26.85;56.00
63194;BME280;49289;51.670;5.624;2023-09-07T01:34:51;102028.57;;;26.83;56.22
63194;BME280;49289;51.670;5.624;2023-09-07T01:36:38;102025.86;;;26.81;56.13
63194;BME280;49289;51.670;5.624;2023-09-07T01:38:25;102026.70;;;26.82;56.27
63194;BME280;49289;51.670;5.624;2023-09-07T01:40:13;102008.86;;;26.70;56.02
63194;BME280;49289;51.670;5.624;2023-09-07T01:42:01;102027.56;;;26.79;56.09
63194;BME280;49289;51.670;5.624;2023-09-07T01:43:48;102026.43;;;26.73;56.41
63194;BME280;49289;51.670;5.624;2023-09-07T01:45:35;102025.42;;;26.73;56.18
63194;BME280;49289;51.670;5.624;2023-09-07T01:47:22;102002.73;;;26.53;56.33
63194;BME280;49289;51.670;5.624;2023-09-07T01:49:09;102028.64;;;26.55;56.55
63194;BME280;49289;51.670;5.624;2023-09-07T01:50:57;102007.33;;;26.45;56.60
63194;BME280;49289;51.670;5.624;2023-09-07T01:52:46;102007.25;;;26.44;56.81
63194;BME280;49289;51.670;5.624;2023-09-07T01:54:34;102006.25;;;26.38;57.05
63194;BME280;49289;51.670;5.624;2023-09-07T01:56:22;102007.09;;;26.40;57.25
63194;BME280;49289;51.670;5.624;2023-09-07T01:58:10;102026.27;;;26.46;57.49
63194;BME280;49289;51.670;5.624;2023-09-07T01:59:57;102005.51;;;26.31;57.39
63194;BME280;49289;51.670;5.624;2023-09-07T02:01:44;102024.41;;;26.46;57.54
63194;BME280;49289;51.670;5.624;2023-09-07T02:03:31;102027.11;;;26.46;57.39
63194;BME280;49289;51.670;5.624;2023-09-07T02:05:19;102025.94;;;26.44;57.26
63194;BME280;49289;51.670;5.624;2023-09-07T02:07:07;102024.33;;;26.42;57.21
63194;BME280;49289;51.670;5.624;2023-09-07T02:08:54;102016.37;;;26.35;57.08
63194;BME280;49289;51.670;5.624;2023-09-07T02:10:41;102002.77;;;26.25;57.29
63194;BME280;49289;51.670;5.624;2023-09-07T02:12:28;101999.91;;;26.21;57.32
63194;BME280;49289;51.670;5.624;2023-09-07T02:14:15;102000.73;;;26.27;57.28
63194;BME280;49289;51.670;5.624;2023-09-07T02:16:04;102001.35;;;26.23;57.14
63194;BME280;49289;51.670;5.624;2023-09-07T02:17:52;102026.03;;;26.34;57.26
63194;BME280;49289;51.670;5.624;2023-09-07T02:19:40;102028.22;;;26.38;57.02
63194;BME280;49289;51.670;5.624;2023-09-07T02:21:28;102028.05;;;26.32;57.27
63194;BME280;49289;51.670;5.624;2023-09-07T02:23:16;102027.50;;;26.28;57.47
63194;BME280;49289;51.670;5.624;2023-09-07T02:25:03;102007.02;;;26.14;57.28
63194;BME280;49289;51.670;5.624;2023-09-07T02:26:50;102027.09;;;26.21;57.65
63194;BME280;49289;51.670;5.624;2023-09-07T02:28:38;102022.70;;;26.21;57.59
63194;BME280;49289;51.670;5.624;2023-09-07T02:30:27;102017.52;;;26.16;57.81
63194;BME280;49289;51.670;5.624;2023-09-07T02:32:15;102021.89;;;26.17;57.80
63194;BME280;49289;51.670;5.624;2023-09-07T02:34:02;102019.63;;;26.15;58.07
63194;BME280;49289;51.670;5.624;2023-09-07T02:35:49;101997.63;;;26.01;57.99
63194;BME280;49289;51.670;5.624;2023-09-07T02:37:36;102021.06;;;26.15;57.86
63194;BME280;49289;51.670;5.624;2023-09-07T02:39:23;101991.77;;;25.96;57.99
63194;BME280;49289;51.670;5.624;2023-09-07T02:41:11;102026.69;;;26.17;57.66
63194;BME280;49289;51.670;5.624;2023-09-07T02:43:00;102023.09;;;26.13;57.77
63194;BME280;49289;51.670;5.624;2023-09-07T02:44:48;102005.88;;;26.01;57.61
63194;BME280;49289;51.670;5.624;2023-09-07T02:46:36;102030.17;;;26.11;57.57
63194;BME280;49289;51.670;5.624;2023-09-07T02:48:23;102005.80;;;26.00;57.59
63194;BME280;49289;51.670;5.624;2023-09-07T02:50:11;102028.31;;;26.13;57.34
63194;BME280;49289;51.670;5.624;2023-09-07T02:51:59;102002.88;;;25.93;57.40
63194;BME280;49289;51.670;5.624;2023-09-07T02:53:46;102025.23;;;26.07;57.46
63194;BME280;49289;51.670;5.624;2023-09-07T02:55:33;102024.55;;;26.02;58.09
63194;BME280;49289;51.670;5.624;2023-09-07T02:57:20;102020.53;;;26.03;57.97
63194;BME280;49289;51.670;5.624;2023-09-07T02:59:07;101999.87;;;25.89;58.05
63194;BME280;49289;51.670;5.624;2023-09-07T03:00:55;102020.86;;;26.00;58.31
63194;BME280;49289;51.670;5.624;2023-09-07T03:02:44;102024.58;;;25.95;58.26
63194;BME280;49289;51.670;5.624;2023-09-07T03:04:32;102021.47;;;25.96;58.29
63194;BME280;49289;51.670;5.624;2023-09-07T03:06:20;102021.39;;;25.93;58.32
63194;BME280;49289;51.670;5.624;2023-09-07T03:08:08;102016.86;;;25.90;58.14
63194;BME280;49289;51.670;5.624;2023-09-07T03:09:57;101998.89;;;25.84;58.12
63194;BME280;49289;51.670;5.624;2023-09-07T03:11:45;102024.70;;;25.89;58.25
63194;BME280;49289;51.670;5.624;2023-09-07T03:13:32;102020.81;;;25.92;58.22
63194;BME280;49289;51.670;5.624;2023-09-07T03:15:21;102019.73;;;25.87;58.44
63194;BME280;49289;51.670;5.624;2023-09-07T03:16:53;102018.72;;;25.89;58.45
63194;BME280;49289;51.670;5.624;2023-09-07T03:18:40;102016.79;;;25.81;58.86
63194;BME280;49289;51.670;5.624;2023-09-07T03:20:27;102021.16;;;25.83;58.74
63194;BME280;49289;51.670;5.624;2023-09-07T03:22:16;102019.33;;;25.84;58.79
63194;BME280;49289;51.670;5.624;2023-09-07T03:24:04;102022.86;;;25.84;58.65
63194;BME280;49289;51.670;5.624;2023-09-07T03:25:51;101999.84;;;25.73;58.83
63194;BME280;49289;51.670;5.624;2023-09-07T03:27:40;102004.70;;;25.76;58.63
63194;BME280;49289;51.670;5.624;2023-09-07T03:29:29;102023.34;;;25.89;58.41
63194;BME280;49289;51.670;5.624;2023-09-07T03:31:16;102022.51;;;25.88;58.42
63194;BME280;49289;51.670;5.624;2023-09-07T03:33:04;102018.05;;;25.87;58.20
63194;BME280;49289;51.670;5.624;2023-09-07T03:34:51;102019.08;;;25.83;58.22
63194;BME280;49289;51.670;5.624;2023-09-07T03:36:38;102016.53;;;25.81;58.23
63194;BME280;49289;51.670;5.624;2023-09-07T03:38:25;101996.80;;;25.66;58.04
63194;BME280;49289;51.670;5.624;2023-09-07T03:40:13;101995.20;;;25.66;58.29
63194;BME280;49289;51.670;5.624;2023-09-07T03:42:00;102019.09;;;25.72;58.68
63194;BME280;49289;51.670;5.624;2023-09-07T03:43:47;102014.03;;;25.75;58.49
63194;BME280;49289;51.670;5.624;2023-09-07T03:45:34;101994.20;;;25.57;58.91
63194;BME280;49289;51.670;5.624;2023-09-07T03:48:20;102022.27;;;25.86;58.75
63194;BME280;49289;51.670;5.624;2023-09-07T03:50:07;102022.43;;;25.87;58.60
63194;BME280;49289;51.670;5.624;2023-09-07T03:51:54;102023.12;;;25.83;58.43
63194;BME280;49289;51.670;5.624;2023-09-07T03:53:41;102002.12;;;25.70;58.52
63194;BME280;49289;51.670;5.624;2023-09-07T03:55:29;102024.52;;;25.83;58.52
63194;BME280;49289;51.670;5.624;2023-09-07T03:57:18;102024.72;;;25.75;58.23
63194;BME280;49289;51.670;5.624;2023-09-07T03:59:06;102026.80;;;25.81;58.20
63194;BME280;49289;51.670;5.624;2023-09-07T04:00:54;102029.32;;;25.80;58.15
63194;BME280;49289;51.670;5.624;2023-09-07T04:02:42;102030.09;;;25.77;58.26
63194;BME280;49289;51.670;5.624;2023-09-07T04:04:30;102030.19;;;25.74;58.28
63194;BME280;49289;51.670;5.624;2023-09-07T04:06:17;102008.23;;;25.57;58.05
63194;BME280;49289;51.670;5.624;2023-09-07T04:08:04;102035.49;;;25.71;58.16
63194;BME280;49289;51.670;5.624;2023-09-07T04:09:51;102027.91;;;25.66;58.24
63194;BME280;49289;51.670;5.624;2023-09-07T04:11:38;102004.22;;;25.52;58.32
63194;BME280;49289;51.670;5.624;2023-09-07T04:13:25;102018.75;;;25.56;58.18
63194;BME280;49289;51.670;5.624;2023-09-07T04:15:15;102001.30;;;25.44;58.23
63194;BME280;49289;51.670;5.624;2023-09-07T04:17:02;101998.17;;;25.39;58.56
63194;BME280;49289;51.670;5.624;2023-09-07T04:18:49;102020.86;;;25.54;58.51
63194;BME280;49289;51.670;5.624;2023-09-07T04:20:37;102014.40;;;25.38;58.72
63194;BME280;49289;51.670;5.624;2023-09-07T04:22:25;102016.09;;;25.45;58.87
63194;BME280;49289;51.670;5.624;2023-09-07T04:24:14;102010.38;;;25.44;58.95
63194;BME280;49289;51.670;5.624;2023-09-07T04:26:09;102012.81;;;25.46;58.90
63194;BME280;49289;51.670;5.624;2023-09-07T04:27:57;101989.79;;;25.31;58.59
63194;BME280;49289;51.670;5.624;2023-09-07T04:29:45;102009.28;;;25.45;59.03
63194;BME280;49289;51.670;5.624;2023-09-07T04:31:33;102005.48;;;25.42;58.83
63194;BME280;49289;51.670;5.624;2023-09-07T04:33:20;102012.13;;;25.40;58.88
63194;BME280;49289;51.670;5.624;2023-09-07T04:35:07;101991.22;;;25.31;58.91
63194;BME280;49289;51.670;5.624;2023-09-07T04:36:54;102020.60;;;25.43;58.84
63194;BME280;49289;51.670;5.624;2023-09-07T04:38:43;102016.16;;;25.42;58.83
63194;BME280;49289;51.670;5.624;2023-09-07T04:40:31;102018.00;;;25.40;58.92
63194;BME280;49289;51.670;5.624;2023-09-07T04:42:18;102004.59;;;25.25;58.69
63194;BME280;49289;51.670;5.624;2023-09-07T04:44:05;102026.42;;;25.35;58.67
63194;BME280;49289;51.670;5.624;2023-09-07T04:45:58;102027.84;;;25.38;58.88
63194;BME280;49289;51.670;5.624;2023-09-07T04:47:46;102028.11;;;25.33;58.91
63194;BME280;49289;51.670;5.624;2023-09-07T04:49:34;102030.03;;;25.38;58.86
63194;BME280;49289;51.670;5.624;2023-09-07T04:51:21;102034.24;;;25.32;58.77
63194;BME280;49289;51.670;5.624;2023-09-07T04:53:08;102012.30;;;25.18;58.54
63194;BME280;49289;51.670;5.624;2023-09-07T04:54:56;102009.20;;;25.16;58.68
63194;BME280;49289;51.670;5.624;2023-09-07T04:56:45;102029.28;;;25.17;58.70
63194;BME280;49289;51.670;5.624;2023-09-07T04:58:33;102031.04;;;25.19;58.59
63194;BME280;49289;51.670;5.624;2023-09-07T05:00:22;102029.11;;;25.18;58.52
63194;BME280;49289;51.670;5.624;2023-09-07T05:02:12;102006.80;;;24.99;58.61
63194;BME280;49289;51.670;5.624;2023-09-07T05:04:00;102037.97;;;24.95;58.90
63194;BME280;49289;51.670;5.624;2023-09-07T05:05:50;102034.61;;;24.92;59.42
63194;BME280;49289;51.670;5.624;2023-09-07T05:07:36;102038.95;;;25.03;59.56
63194;BME280;49289;51.670;5.624;2023-09-07T05:09:24;102017.14;;;24.88;59.54
63194;BME280;49289;51.670;5.624;2023-09-07T05:11:11;102043.15;;;25.05;59.28
63194;BME280;49289;51.670;5.624;2023-09-07T05:12:58;102022.01;;;24.90;59.26
63194;BME280;49289;51.670;5.624;2023-09-07T05:14:45;102047.27;;;25.04;59.26
63194;BME280;49289;51.670;5.624;2023-09-07T05:16:32;102045.41;;;25.05;59.10
63194;BME280;49289;51.670;5.624;2023-09-07T05:18:20;102049.33;;;25.02;59.27
63194;BME280;49289;51.670;5.624;2023-09-07T05:20:08;102046.20;;;24.95;59.31
63194;BME280;49289;51.670;5.624;2023-09-07T05:21:56;102027.72;;;24.85;59.35
63194;BME280;49289;51.670;5.624;2023-09-07T05:23:43;102047.96;;;24.95;59.34
63194;BME280;49289;51.670;5.624;2023-09-07T05:25:30;102029.66;;;24.85;59.61
63194;BME280;49289;51.670;5.624;2023-09-07T05:27:17;102030.07;;;24.90;59.66
63194;BME280;49289;51.670;5.624;2023-09-07T05:29:04;102053.25;;;24.99;59.83
63194;BME280;49289;51.670;5.624;2023-09-07T05:30:53;102054.91;;;25.06;59.87
63194;BME280;49289;51.670;5.624;2023-09-07T05:32:41;102060.20;;;25.04;59.98
63194;BME280;49289;51.670;5.624;2023-09-07T05:34:29;102038.72;;;24.95;59.79
63194;BME280;49289;51.670;5.624;2023-09-07T05:36:17;102060.62;;;25.09;59.66
63194;BME280;49289;51.670;5.624;2023-09-07T05:38:04;102035.78;;;24.96;59.78
63194;BME280;49289;51.670;5.624;2023-09-07T05:39:51;102044.94;;;24.98;59.66
63194;BME280;49289;51.670;5.624;2023-09-07T05:41:39;102067.42;;;25.14;59.47
63194;BME280;49289;51.670;5.624;2023-09-07T05:43:28;102069.52;;;25.14;59.46
63194;BME280;49289;51.670;5.624;2023-09-07T05:45:17;102069.27;;;25.14;59.36
63194;BME280;49289;51.670;5.624;2023-09-07T05:47:05;102074.14;;;25.16;59.36
63194;BME280;49289;51.670;5.624;2023-09-07T05:48:53;102050.77;;;25.02;59.48
63194;BME280;49289;51.670;5.624;2023-09-07T05:50:41;102074.48;;;25.17;59.52
63194;BME280;49289;51.670;5.624;2023-09-07T05:52:28;102054.66;;;25.04;59.83
63194;BME280;49289;51.670;5.624;2023-09-07T05:54:15;102071.36;;;25.21;59.88
63194;BME280;49289;51.670;5.624;2023-09-07T05:56:02;102049.36;;;25.14;59.93
63194;BME280;49289;51.670;5.624;2023-09-07T05:57:49;102072.73;;;25.26;59.82
63194;BME280;49289;51.670;5.624;2023-09-07T06:00:47;102073.65;;;25.37;59.61
63194;BME280;49289;51.670;5.624;2023-09-07T06:02:35;102081.30;;;25.36;59.65
63194;BME280;49289;51.670;5.624;2023-09-07T06:04:23;102058.45;;;25.25;59.79
63194;BME280;49289;51.670;5.624;2023-09-07T06:06:11;102075.51;;;25.48;59.70
63194;BME280;49289;51.670;5.624;2023-09-07T06:07:59;102071.14;;;25.47;59.78
63194;BME280;49289;51.670;5.624;2023-09-07T06:09:46;102073.41;;;25.45;59.93
63194;BME280;49289;51.670;5.624;2023-09-07T06:11:33;102051.56;;;25.47;59.93
63194;BME280;49289;51.670;5.624;2023-09-07T06:13:20;102071.63;;;25.66;59.64
63194;BME280;49289;51.670;5.624;2023-09-07T06:15:08;102077.37;;;25.68;59.75
63194;BME280;49289;51.670;5.624;2023-09-07T06:16:56;102081.64;;;25.78;59.59
63194;BME280;49289;51.670;5.624;2023-09-07T06:18:44;102085.09;;;25.85;59.35
63194;BME280;49289;51.670;5.624;2023-09-07T06:20:32;102085.75;;;25.90;59.30
63194;BME280;49289;51.670;5.624;2023-09-07T06:22:19;102087.19;;;25.88;59.30
63194;BME280;49289;51.670;5.624;2023-09-07T06:24:06;102086.41;;;26.03;59.23
63194;BME280;49289;51.670;5.624;2023-09-07T06:25:55;102067.16;;;25.83;59.05
63194;BME280;49289;51.670;5.624;2023-09-07T06:27:42;102090.01;;;26.08;58.62
63194;BME280;49289;51.670;5.624;2023-09-07T06:29:29;102089.07;;;26.02;58.78
63194;BME280;49289;51.670;5.624;2023-09-07T06:31:16;102090.09;;;25.98;59.00
63194;BME280;49289;51.670;5.624;2023-09-07T06:33:03;102082.47;;;25.90;58.40
63194;BME280;49289;51.670;5.624;2023-09-07T06:34:50;102091.84;;;26.10;58.55
63194;BME280;49289;51.670;5.624;2023-09-07T06:36:38;102094.91;;;26.27;57.87
63194;BME280;49289;51.670;5.624;2023-09-07T06:38:26;102096.78;;;26.25;57.84
63194;BME280;49289;51.670;5.624;2023-09-07T06:40:15;102094.28;;;26.41;57.36
63194;BME280;49289;51.670;5.624;2023-09-07T06:42:02;102100.69;;;26.46;57.22
63194;BME280;49289;51.670;5.624;2023-09-07T06:43:49;102103.63;;;26.61;56.92
63194;BME280;49289;51.670;5.624;2023-09-07T06:45:39;102086.95;;;26.41;56.54
63194;BME280;49289;51.670;5.624;2023-09-07T06:47:26;102079.99;;;26.43;56.81
63194;BME280;49289;51.670;5.624;2023-09-07T06:49:13;102103.88;;;26.80;56.43
63194;BME280;49289;51.670;5.624;2023-09-07T06:51:00;102105.80;;;26.86;56.39
63194;BME280;49289;51.670;5.624;2023-09-07T06:52:47;102083.27;;;26.64;56.08
63194;BME280;49289;51.670;5.624;2023-09-07T06:54:34;102081.55;;;26.84;55.96
63194;BME280;49289;51.670;5.624;2023-09-07T06:56:23;102083.08;;;26.93;55.47
63194;BME280;49289;51.670;5.624;2023-09-07T06:58:11;102085.84;;;26.95;55.44
63194;BME280;49289;51.670;5.624;2023-09-07T07:00:00;102084.39;;;26.98;55.58
63194;BME280;49289;51.670;5.624;2023-09-07T07:01:49;102103.98;;;26.93;55.14
63194;BME280;49289;51.670;5.624;2023-09-07T07:03:37;102102.50;;;27.17;55.31
63194;BME280;49289;51.670;5.624;2023-09-07T07:05:25;102103.36;;;27.28;55.06
63194;BME280;49289;51.670;5.624;2023-09-07T07:07:14;102101.37;;;27.10;54.88
63194;BME280;49289;51.670;5.624;2023-09-07T07:09:02;102098.26;;;27.33;54.67
63194;BME280;49289;51.670;5.624;2023-09-07T07:10:50;102100.45;;;27.24;54.66
63194;BME280;49289;51.670;5.624;2023-09-07T07:12:38;102100.75;;;27.37;54.33
63194;BME280;49289;51.670;5.624;2023-09-07T07:14:25;102106.66;;;27.48;54.29
63194;BME280;49289;51.670;5.624;2023-09-07T07:16:12;102084.09;;;27.54;53.83
63194;BME280;49289;51.670;5.624;2023-09-07T07:17:59;102103.70;;;27.63;53.88
63194;BME280;49289;51.670;5.624;2023-09-07T07:19:46;102087.63;;;27.62;53.45
63194;BME280;49289;51.670;5.624;2023-09-07T07:21:35;102087.91;;;27.65;53.25
63194;BME280;49289;51.670;5.624;2023-09-07T07:23:23;102105.11;;;27.83;52.94
63194;BME280;49289;51.670;5.624;2023-09-07T07:25:11;102104.08;;;27.85;53.10
63194;BME280;49289;51.670;5.624;2023-09-07T07:26:58;102085.78;;;27.91;52.89
63194;BME280;49289;51.670;5.624;2023-09-07T07:28:46;102103.81;;;28.17;52.46
63194;BME280;49289;51.670;5.624;2023-09-07T07:30:35;102103.93;;;28.32;52.32
63194;BME280;49289;51.670;5.624;2023-09-07T07:32:23;102103.64;;;28.28;52.02
63194;BME280;49289;51.670;5.624;2023-09-07T07:34:11;102083.40;;;28.27;52.17
63194;BME280;49289;51.670;5.624;2023-09-07T07:35:58;102081.86;;;28.34;51.59
63194;BME280;49289;51.670;5.624;2023-09-07T07:37:45;102087.13;;;28.24;51.37
63194;BME280;49289;51.670;5.624;2023-09-07T07:39:32;102113.09;;;28.35;50.69
63194;BME280;49289;51.670;5.624;2023-09-07T07:41:19;102088.42;;;28.50;50.73
63194;BME280;49289;51.670;5.624;2023-09-07T07:43:08;102086.79;;;28.46;50.29
63194;BME280;49289;51.670;5.624;2023-09-07T07:44:55;102090.14;;;28.40;49.74
63194;BME280;49289;51.670;5.624;2023-09-07T07:46:42;102109.42;;;28.86;49.59
63194;BME280;49289;51.670;5.624;2023-09-07T07:48:29;102110.45;;;28.96;49.26
63194;BME280;49289;51.670;5.624;2023-09-07T07:50:18;102089.69;;;28.56;49.48
63194;BME280;49289;51.670;5.624;2023-09-07T07:52:07;102110.20;;;28.82;49.13
63194;BME280;49289;51.670;5.624;2023-09-07T07:53:55;102087.83;;;28.75;48.96
63194;BME280;49289;51.670;5.624;2023-09-07T07:55:43;102084.23;;;28.85;48.66
63194;BME280;49289;51.670;5.624;2023-09-07T07:57:30;102081.92;;;29.27;48.61
63194;BME280;49289;51.670;5.624;2023-09-07T07:59:17;102099.11;;;29.40;48.59
63194;BME280;49289;51.670;5.624;2023-09-07T08:01:10;102076.25;;;29.27;48.65
63194;BME280;49289;51.670;5.624;2023-09-07T08:02:53;102079.35;;;29.45;48.81
63194;BME280;49289;51.670;5.624;2023-09-07T08:04:41;102083.14;;;29.25;48.25
63194;BME280;49289;51.670;5.624;2023-09-07T08:06:28;102082.88;;;29.35;48.01
63194;BME280;49289;51.670;5.624;2023-09-07T08:08:16;102077.92;;;29.46;47.67
63194;BME280;49289;51.670;5.624;2023-09-07T08:10:04;102102.91;;;29.41;47.83
63194;BME280;49289;51.670;5.624;2023-09-07T08:11:52;102082.37;;;29.61;47.01
63194;BME280;49289;51.670;5.624;2023-09-07T08:13:39;102102.09;;;29.94;46.88
63194;BME280;49289;51.670;5.624;2023-09-07T08:15:26;102097.68;;;29.80;45.75
63194;BME280;49289;51.670;5.624;2023-09-07T08:17:13;102091.20;;;30.01;46.25
63194;BME280;49289;51.670;5.624;2023-09-07T08:19:01;102100.66;;;29.51;45.83
63194;BME280;49289;51.670;5.624;2023-09-07T08:20:50;102072.89;;;29.80;45.91
63194;BME280;49289;51.670;5.624;2023-09-07T08:22:37;102085.97;;;29.96;45.23
63194;BME280;49289;51.670;5.624;2023-09-07T08:24:24;102085.69;;;29.79;45.69
63194;BME280;49289;51.670;5.624;2023-09-07T08:26:11;102061.73;;;30.04;44.53
63194;BME280;49289;51.670;5.624;2023-09-07T08:27:59;102082.34;;;30.39;44.31
63194;BME280;49289;51.670;5.624;2023-09-07T08:29:46;102063.62;;;30.24;44.19
63194;BME280;49289;51.670;5.624;2023-09-07T08:31:35;102054.59;;;30.17;43.77
63194;BME280;49289;51.670;5.624;2023-09-07T08:33:23;102072.56;;;30.01;45.41
63194;BME280;49289;51.670;5.624;2023-09-07T08:35:10;102046.34;;;30.11;45.03
63194;BME280;49289;51.670;5.624;2023-09-07T08:36:57;102062.47;;;30.26;44.80
63194;BME280;49289;51.670;5.624;2023-09-07T08:38:45;102063.51;;;30.40;44.30
63194;BME280;49289;51.670;5.624;2023-09-07T08:40:34;102060.81;;;30.51;44.14
63194;BME280;49289;51.670;5.624;2023-09-07T08:42:22;102040.36;;;30.37;44.09
63194;BME280;49289;51.670;5.624;2023-09-07T08:44:09;102037.55;;;30.46;44.48
63194;BME280;49289;51.670;5.624;2023-09-07T08:45:58;102044.95;;;30.25;45.03
63194;BME280;49289;51.670;5.624;2023-09-07T08:47:45;102037.78;;;30.64;44.32
63194;BME280;49289;51.670;5.624;2023-09-07T08:49:33;102061.06;;;30.93;44.27
63194;BME280;49289;51.670;5.624;2023-09-07T08:51:22;102036.41;;;30.99;44.49
63194;BME280;49289;51.670;5.624;2023-09-07T08:53:10;102036.50;;;30.99;44.25
63194;BME280;49289;51.670;5.624;2023-09-07T08:54:57;102037.94;;;30.71;43.98
63194;BME280;49289;51.670;5.624;2023-09-07T08:56:44;102055.70;;;30.97;43.69
63194;BME280;49289;51.670;5.624;2023-09-07T08:58:32;102038.83;;;30.83;43.31
63194;BME280;49289;51.670;5.624;2023-09-07T09:00:22;102037.26;;;31.02;43.00
63194;BME280;49289;51.670;5.624;2023-09-07T09:02:12;102058.91;;;31.37;43.12
63194;BME280;49289;51.670;5.624;2023-09-07T09:04:00;102038.91;;;31.12;42.60
63194;BME280;49289;51.670;5.624;2023-09-07T09:05:48;102059.82;;;31.41;42.70
63194;BME280;49289;51.670;5.624;2023-09-07T09:07:36;102057.55;;;31.44;43.20
63194;BME280;49289;51.670;5.624;2023-09-07T09:09:28;102051.14;;;31.55;43.19
63194;BME280;49289;51.670;5.624;2023-09-07T09:11:16;102020.19;;;31.77;41.85
63194;BME280;49289;51.670;5.624;2023-09-07T09:13:02;102026.10;;;31.84;42.42
63194;BME280;49289;51.670;5.624;2023-09-07T09:14:52;102043.10;;;32.19;41.02
63194;BME280;49289;51.670;5.624;2023-09-07T09:16:40;102025.63;;;32.07;40.47
63194;BME280;49289;51.670;5.624;2023-09-07T09:18:28;102031.08;;;32.43;41.12
63194;BME280;49289;51.670;5.624;2023-09-07T09:20:25;102050.73;;;32.62;41.19
63194;BME280;49289;51.670;5.624;2023-09-07T09:22:13;102035.49;;;32.55;40.54
63194;BME280;49289;51.670;5.624;2023-09-07T09:24:00;102026.66;;;32.35;40.52
63194;BME280;49289;51.670;5.624;2023-09-07T09:25:47;102029.76;;;32.73;40.23